sensor_id;sensor_type;location;lat;lon;timestamp;pressure;altitude;pressure_sealevel;temperature;humidity
60642;BME280;46837;52.446;-1.930;2023-02-17T00:00:09;100383.86;;;10.33;88.20
60642;BME280;46837;52.446;-1.930;2023-02-17T00:01:15;100383.61;;;10.34;88.21
60642;BME280;46837;52.446;-1.930;2023-02-17T00:02:09;100384.21;;;10.36;88.21
60642;BME280;46837;52.446;-1.930;2023-02-17T00:03:09;100385.98;;;10.37;88.18
60642;BME280;46837;52.446;-1.930;2023-02-17T00:04:09;100384.15;;;10.36;88.24
60642;BME280;46837;52.446;-1.930;2023-02-17T00:05:09;100382.59;;;10.37;88.34
60642;BME280;46837;52.446;-1.930;2023-02-17T00:06:09;100384.25;;;10.41;88.26
60642;BME280;46837;52.446;-1.930;2023-02-17T00:07:09;100385.47;;;10.44;88.11
60642;BME280;46837;52.446;-1.930;2023-02-17T00:08:09;100387.06;;;10.45;87.96
60642;BME280;46837;52.446;-1.930;2023-02-17T00:09:09;100383.90;;;10.45;87.93
60642;BME280;46837;52.446;-1.930;2023-02-17T00:10:09;100387.40;;;10.39;88.49
60642;BME280;46837;52.446;-1.930;2023-02-17T00:11:09;100386.90;;;10.45;88.32
60642;BME280;46837;52.446;-1.930;2023-02-17T00:12:09;100387.43;;;10.44;88.17
60642;BME280;46837;52.446;-1.930;2023-02-17T00:13:09;100390.30;;;10.46;88.25
60642;BME280;46837;52.446;-1.930;2023-02-17T00:14:10;100386.08;;;10.46;88.24
60642;BME280;46837;52.446;-1.930;2023-02-17T00:15:09;100384.86;;;10.51;88.19
60642;BME280;46837;52.446;-1.930;2023-02-17T00:16:09;100378.44;;;10.53;87.99
60642;BME280;46837;52.446;-1.930;2023-02-17T00:17:09;100381.04;;;10.53;88.05
60642;BME280;46837;52.446;-1.930;2023-02-17T00:18:09;100379.58;;;10.54;88.15
60642;BME280;46837;52.446;-1.930;2023-02-17T00:19:13;100378.70;;;10.53;88.16
60642;BME280;46837;52.446;-1.930;2023-02-17T00:20:09;100381.16;;;10.52;88.28
60642;BME280;46837;52.446;-1.930;2023-02-17T00:21:14;100378.44;;;10.55;88.39
60642;BME280;46837;52.446;-1.930;2023-02-17T00:22:09;100375.88;;;10.56;88.16
60642;BME280;46837;52.446;-1.930;2023-02-17T00:23:09;100379.23;;;10.58;88.11
60642;BME280;46837;52.446;-1.930;2023-02-17T00:24:09;100378.08;;;10.60;88.00
60642;BME280;46837;52.446;-1.930;2023-02-17T00:25:09;100373.50;;;10.59;88.12
60642;BME280;46837;52.446;-1.930;2023-02-17T00:26:09;100380.50;;;10.62;88.08
60642;BME280;46837;52.446;-1.930;2023-02-17T00:27:09;100376.18;;;10.61;88.07
60642;BME280;46837;52.446;-1.930;2023-02-17T00:28:09;100374.97;;;10.59;87.97
60642;BME280;46837;52.446;-1.930;2023-02-17T00:29:09;100370.27;;;10.59;88.09
60642;BME280;46837;52.446;-1.930;2023-02-17T00:30:09;100371.55;;;10.55;88.41
60642;BME280;46837;52.446;-1.930;2023-02-17T00:31:11;100363.75;;;10.57;88.35
60642;BME280;46837;52.446;-1.930;2023-02-17T00:32:09;100362.69;;;10.61;88.21
60642;BME280;46837;52.446;-1.930;2023-02-17T00:33:09;100361.88;;;10.64;87.99
60642;BME280;46837;52.446;-1.930;2023-02-17T00:34:09;100354.84;;;10.63;87.98
60642;BME280;46837;52.446;-1.930;2023-02-17T00:35:09;100360.43;;;10.68;88.00
60642;BME280;46837;52.446;-1.930;2023-02-17T00:36:14;100360.77;;;10.71;87.73
60642;BME280;46837;52.446;-1.930;2023-02-17T00:37:09;100357.46;;;10.73;87.62
60642;BME280;46837;52.446;-1.930;2023-02-17T00:38:09;100359.54;;;10.76;87.52
60642;BME280;46837;52.446;-1.930;2023-02-17T00:39:10;100352.05;;;10.73;87.57
60642;BME280;46837;52.446;-1.930;2023-02-17T00:40:09;100355.75;;;10.74;87.59
60642;BME280;46837;52.446;-1.930;2023-02-17T00:41:09;100357.34;;;10.70;87.76
60642;BME280;46837;52.446;-1.930;2023-02-17T00:42:09;100352.03;;;10.72;87.85
60642;BME280;46837;52.446;-1.930;2023-02-17T00:43:09;100347.61;;;10.72;87.83
60642;BME280;46837;52.446;-1.930;2023-02-17T00:45:09;100346.70;;;10.78;87.55
60642;BME280;46837;52.446;-1.930;2023-02-17T00:46:09;100345.95;;;10.81;87.56
60642;BME280;46837;52.446;-1.930;2023-02-17T00:47:09;100348.70;;;10.83;87.42
60642;BME280;46837;52.446;-1.930;2023-02-17T00:48:09;100345.41;;;10.80;87.36
60642;BME280;46837;52.446;-1.930;2023-02-17T00:49:29;100343.88;;;10.82;87.55
60642;BME280;46837;52.446;-1.930;2023-02-17T00:50:09;100341.69;;;10.82;87.48
60642;BME280;46837;52.446;-1.930;2023-02-17T00:51:09;100334.97;;;10.82;87.58
60642;BME280;46837;52.446;-1.930;2023-02-17T00:52:09;100327.39;;;10.84;87.55
60642;BME280;46837;52.446;-1.930;2023-02-17T00:53:09;100322.95;;;10.82;87.54
60642;BME280;46837;52.446;-1.930;2023-02-17T00:54:09;100325.29;;;10.81;88.00
60642;BME280;46837;52.446;-1.930;2023-02-17T00:55:09;100317.75;;;10.80;87.99
60642;BME280;46837;52.446;-1.930;2023-02-17T00:56:09;100318.19;;;10.82;88.05
60642;BME280;46837;52.446;-1.930;2023-02-17T00:57:09;100319.93;;;10.82;88.11
60642;BME280;46837;52.446;-1.930;2023-02-17T00:58:09;100321.40;;;10.79;88.09
60642;BME280;46837;52.446;-1.930;2023-02-17T00:59:09;100322.66;;;10.79;88.32
60642;BME280;46837;52.446;-1.930;2023-02-17T01:00:09;100315.23;;;10.80;88.27
60642;BME280;46837;52.446;-1.930;2023-02-17T01:01:09;100311.25;;;10.81;88.16
60642;BME280;46837;52.446;-1.930;2023-02-17T01:02:09;100308.34;;;10.81;88.02
60642;BME280;46837;52.446;-1.930;2023-02-17T01:03:09;100301.39;;;10.78;88.17
60642;BME280;46837;52.446;-1.930;2023-02-17T01:04:09;100307.22;;;10.73;88.40
60642;BME280;46837;52.446;-1.930;2023-02-17T01:05:09;100307.49;;;10.72;88.68
60642;BME280;46837;52.446;-1.930;2023-02-17T01:06:10;100310.61;;;10.72;88.40
60642;BME280;46837;52.446;-1.930;2023-02-17T01:07:09;100311.00;;;10.73;88.29
60642;BME280;46837;52.446;-1.930;2023-02-17T01:08:09;100301.79;;;10.69;88.41
60642;BME280;46837;52.446;-1.930;2023-02-17T01:09:11;100316.44;;;10.69;88.52
60642;BME280;46837;52.446;-1.930;2023-02-17T01:10:09;100311.19;;;10.71;88.32
60642;BME280;46837;52.446;-1.930;2023-02-17T01:12:10;100309.23;;;10.72;88.03
60642;BME280;46837;52.446;-1.930;2023-02-17T01:13:09;100304.74;;;10.69;87.95
60642;BME280;46837;52.446;-1.930;2023-02-17T01:14:10;100312.94;;;10.67;88.17
60642;BME280;46837;52.446;-1.930;2023-02-17T01:15:09;100294.94;;;10.63;88.19
60642;BME280;46837;52.446;-1.930;2023-02-17T01:16:31;100310.34;;;10.62;88.37
60642;BME280;46837;52.446;-1.930;2023-02-17T01:17:09;100306.18;;;10.61;88.50
60642;BME280;46837;52.446;-1.930;2023-02-17T01:18:09;100308.97;;;10.62;88.26
60642;BME280;46837;52.446;-1.930;2023-02-17T01:19:15;100306.78;;;10.59;88.44
60642;BME280;46837;52.446;-1.930;2023-02-17T01:20:09;100310.63;;;10.55;88.57
60642;BME280;46837;52.446;-1.930;2023-02-17T01:21:30;100309.73;;;10.60;88.46
60642;BME280;46837;52.446;-1.930;2023-02-17T01:22:09;100309.98;;;10.55;88.39
60642;BME280;46837;52.446;-1.930;2023-02-17T01:23:09;100300.63;;;10.55;88.33
60642;BME280;46837;52.446;-1.930;2023-02-17T01:24:09;100305.32;;;10.54;88.36
60642;BME280;46837;52.446;-1.930;2023-02-17T01:25:09;100302.60;;;10.55;88.25
60642;BME280;46837;52.446;-1.930;2023-02-17T01:26:12;100304.96;;;10.48;88.51
60642;BME280;46837;52.446;-1.930;2023-02-17T01:27:09;100299.10;;;10.46;88.61
60642;BME280;46837;52.446;-1.930;2023-02-17T01:28:10;100304.23;;;10.46;88.64
60642;BME280;46837;52.446;-1.930;2023-02-17T01:29:09;100308.55;;;10.44;88.64
60642;BME280;46837;52.446;-1.930;2023-02-17T01:30:09;100315.14;;;10.41;88.93
60642;BME280;46837;52.446;-1.930;2023-02-17T01:31:09;100307.12;;;10.42;88.80
60642;BME280;46837;52.446;-1.930;2023-02-17T01:32:09;100312.37;;;10.44;88.67
60642;BME280;46837;52.446;-1.930;2023-02-17T01:33:09;100299.91;;;10.42;88.62
60642;BME280;46837;52.446;-1.930;2023-02-17T01:34:09;100308.29;;;10.37;89.03
60642;BME280;46837;52.446;-1.930;2023-02-17T01:35:09;100305.61;;;10.29;89.29
60642;BME280;46837;52.446;-1.930;2023-02-17T01:36:09;100303.06;;;10.32;89.46
60642;BME280;46837;52.446;-1.930;2023-02-17T01:37:09;100290.95;;;10.31;89.53
60642;BME280;46837;52.446;-1.930;2023-02-17T01:38:09;100276.54;;;10.26;89.54
60642;BME280;46837;52.446;-1.930;2023-02-17T01:39:10;100292.38;;;10.26;89.57
60642;BME280;46837;52.446;-1.930;2023-02-17T01:40:10;100290.41;;;10.23;89.54
60642;BME280;46837;52.446;-1.930;2023-02-17T01:41:09;100298.30;;;10.28;89.43
60642;BME280;46837;52.446;-1.930;2023-02-17T01:42:16;100309.45;;;10.30;89.07
60642;BME280;46837;52.446;-1.930;2023-02-17T01:43:14;100305.11;;;10.23;89.13
60642;BME280;46837;52.446;-1.930;2023-02-17T01:44:12;100316.40;;;10.31;88.87
60642;BME280;46837;52.446;-1.930;2023-02-17T01:46:09;100292.29;;;10.28;88.54
60642;BME280;46837;52.446;-1.930;2023-02-17T01:47:12;100324.19;;;10.28;88.58
60642;BME280;46837;52.446;-1.930;2023-02-17T01:48:13;100323.62;;;10.26;88.61
60642;BME280;46837;52.446;-1.930;2023-02-17T01:50:09;100316.40;;;10.33;88.20
60642;BME280;46837;52.446;-1.930;2023-02-17T01:51:14;100323.78;;;10.34;88.11
60642;BME280;46837;52.446;-1.930;2023-02-17T01:53:09;100330.34;;;10.32;88.11
60642;BME280;46837;52.446;-1.930;2023-02-17T01:54:13;100333.71;;;10.31;88.17
60642;BME280;46837;52.446;-1.930;2023-02-17T01:55:11;100329.17;;;10.32;88.10
60642;BME280;46837;52.446;-1.930;2023-02-17T01:56:09;100327.27;;;10.32;88.02
60642;BME280;46837;52.446;-1.930;2023-02-17T01:57:09;100321.00;;;10.32;87.96
60642;BME280;46837;52.446;-1.930;2023-02-17T01:58:10;100324.94;;;10.27;88.19
60642;BME280;46837;52.446;-1.930;2023-02-17T01:59:11;100325.64;;;10.23;88.38
60642;BME280;46837;52.446;-1.930;2023-02-17T02:00:09;100325.70;;;10.23;88.32
60642;BME280;46837;52.446;-1.930;2023-02-17T02:01:09;100336.60;;;10.18;88.47
60642;BME280;46837;52.446;-1.930;2023-02-17T02:02:09;100329.75;;;10.16;88.62
60642;BME280;46837;52.446;-1.930;2023-02-17T02:03:10;100344.27;;;10.15;88.75
60642;BME280;46837;52.446;-1.930;2023-02-17T02:04:09;100351.66;;;10.17;88.64
60642;BME280;46837;52.446;-1.930;2023-02-17T02:05:09;100353.43;;;10.15;88.60
60642;BME280;46837;52.446;-1.930;2023-02-17T02:06:14;100346.64;;;10.11;88.89
60642;BME280;46837;52.446;-1.930;2023-02-17T02:07:13;100352.00;;;10.13;88.86
60642;BME280;46837;52.446;-1.930;2023-02-17T02:08:09;100352.02;;;10.08;88.91
60642;BME280;46837;52.446;-1.930;2023-02-17T02:09:22;100355.10;;;10.10;88.83
60642;BME280;46837;52.446;-1.930;2023-02-17T02:10:09;100355.70;;;10.11;88.65
60642;BME280;46837;52.446;-1.930;2023-02-17T02:11:09;100349.80;;;10.10;88.62
60642;BME280;46837;52.446;-1.930;2023-02-17T02:12:16;100356.25;;;10.10;88.64
60642;BME280;46837;52.446;-1.930;2023-02-17T02:13:09;100358.85;;;10.09;88.63
60642;BME280;46837;52.446;-1.930;2023-02-17T02:14:09;100357.60;;;10.09;88.56
60642;BME280;46837;52.446;-1.930;2023-02-17T02:15:14;100363.99;;;10.11;88.46
60642;BME280;46837;52.446;-1.930;2023-02-17T02:16:17;100375.41;;;10.10;88.48
60642;BME280;46837;52.446;-1.930;2023-02-17T02:18:25;100371.15;;;10.11;88.39
60642;BME280;46837;52.446;-1.930;2023-02-17T02:24:17;100383.96;;;10.15;87.73
60642;BME280;46837;52.446;-1.930;2023-02-17T02:27:24;100382.96;;;10.25;87.22
60642;BME280;46837;52.446;-1.930;2023-02-17T02:32:57;100380.55;;;10.27;86.74
60642;BME280;46837;52.446;-1.930;2023-02-17T02:33:18;100363.03;;;10.30;86.66
60642;BME280;46837;52.446;-1.930;2023-02-17T02:34:18;100366.10;;;10.31;86.41
60642;BME280;46837;52.446;-1.930;2023-02-17T02:37:16;100345.68;;;10.31;86.05
60642;BME280;46837;52.446;-1.930;2023-02-17T02:39:13;100360.29;;;10.30;85.96
60642;BME280;46837;52.446;-1.930;2023-02-17T02:40:10;100359.55;;;10.33;85.96
60642;BME280;46837;52.446;-1.930;2023-02-17T02:42:11;100357.62;;;10.37;85.64
60642;BME280;46837;52.446;-1.930;2023-02-17T02:43:09;100358.78;;;10.40;85.43
60642;BME280;46837;52.446;-1.930;2023-02-17T02:44:09;100349.06;;;10.40;85.37
60642;BME280;46837;52.446;-1.930;2023-02-17T02:45:09;100347.95;;;10.39;85.29
60642;BME280;46837;52.446;-1.930;2023-02-17T02:46:09;100340.21;;;10.40;85.27
60642;BME280;46837;52.446;-1.930;2023-02-17T02:48:09;100349.23;;;10.41;85.20
60642;BME280;46837;52.446;-1.930;2023-02-17T02:49:09;100342.94;;;10.41;85.13
60642;BME280;46837;52.446;-1.930;2023-02-17T02:50:10;100346.32;;;10.38;85.21
60642;BME280;46837;52.446;-1.930;2023-02-17T02:55:32;100330.70;;;10.40;84.84
60642;BME280;46837;52.446;-1.930;2023-02-17T03:03:15;100318.73;;;10.45;84.40
60642;BME280;46837;52.446;-1.930;2023-02-17T03:04:18;100329.59;;;10.47;84.34
60642;BME280;46837;52.446;-1.930;2023-02-17T03:08:13;100333.45;;;10.49;84.10
60642;BME280;46837;52.446;-1.930;2023-02-17T03:09:16;100333.87;;;10.49;84.13
60642;BME280;46837;52.446;-1.930;2023-02-17T03:10:09;100328.96;;;10.49;84.14
60642;BME280;46837;52.446;-1.930;2023-02-17T03:11:09;100331.02;;;10.47;84.03
60642;BME280;46837;52.446;-1.930;2023-02-17T03:12:09;100323.94;;;10.49;83.97
60642;BME280;46837;52.446;-1.930;2023-02-17T03:13:09;100331.59;;;10.49;83.92
60642;BME280;46837;52.446;-1.930;2023-02-17T03:14:10;100335.98;;;10.55;83.90
60642;BME280;46837;52.446;-1.930;2023-02-17T03:15:15;100326.11;;;10.56;83.81
60642;BME280;46837;52.446;-1.930;2023-02-17T03:16:09;100330.53;;;10.56;83.74
60642;BME280;46837;52.446;-1.930;2023-02-17T03:17:09;100324.20;;;10.56;83.80
60642;BME280;46837;52.446;-1.930;2023-02-17T03:18:09;100324.67;;;10.53;83.67
60642;BME280;46837;52.446;-1.930;2023-02-17T03:19:09;100338.64;;;10.49;84.02
60642;BME280;46837;52.446;-1.930;2023-02-17T03:20:09;100335.02;;;10.50;84.01
60642;BME280;46837;52.446;-1.930;2023-02-17T03:21:13;100339.89;;;10.59;83.76
60642;BME280;46837;52.446;-1.930;2023-02-17T03:22:15;100342.41;;;10.61;83.52
60642;BME280;46837;52.446;-1.930;2023-02-17T03:23:09;100338.42;;;10.60;83.63
60642;BME280;46837;52.446;-1.930;2023-02-17T03:24:09;100339.26;;;10.63;83.54
60642;BME280;46837;52.446;-1.930;2023-02-17T03:25:09;100332.91;;;10.64;83.45
60642;BME280;46837;52.446;-1.930;2023-02-17T03:26:09;100343.68;;;10.65;83.52
60642;BME280;46837;52.446;-1.930;2023-02-17T03:27:09;100334.20;;;10.66;83.43
60642;BME280;46837;52.446;-1.930;2023-02-17T03:28:09;100316.65;;;10.68;83.25
60642;BME280;46837;52.446;-1.930;2023-02-17T03:29:09;100326.76;;;10.66;83.47
60642;BME280;46837;52.446;-1.930;2023-02-17T03:30:09;100326.48;;;10.66;83.48
60642;BME280;46837;52.446;-1.930;2023-02-17T03:31:09;100330.36;;;10.68;83.35
60642;BME280;46837;52.446;-1.930;2023-02-17T03:32:09;100332.08;;;10.71;83.29
60642;BME280;46837;52.446;-1.930;2023-02-17T03:33:09;100324.66;;;10.73;83.15
60642;BME280;46837;52.446;-1.930;2023-02-17T03:34:09;100323.07;;;10.73;83.21
60642;BME280;46837;52.446;-1.930;2023-02-17T03:35:09;100314.27;;;10.73;83.21
60642;BME280;46837;52.446;-1.930;2023-02-17T03:36:09;100317.98;;;10.72;83.29
60642;BME280;46837;52.446;-1.930;2023-02-17T03:37:09;100311.78;;;10.77;83.06
60642;BME280;46837;52.446;-1.930;2023-02-17T03:38:09;100312.52;;;10.74;82.97
60642;BME280;46837;52.446;-1.930;2023-02-17T03:39:09;100309.98;;;10.77;83.04
60642;BME280;46837;52.446;-1.930;2023-02-17T03:40:09;100309.25;;;10.78;83.06
60642;BME280;46837;52.446;-1.930;2023-02-17T03:41:09;100312.01;;;10.80;82.95
60642;BME280;46837;52.446;-1.930;2023-02-17T03:42:09;100308.56;;;10.81;82.91
60642;BME280;46837;52.446;-1.930;2023-02-17T03:43:09;100306.71;;;10.83;82.83
60642;BME280;46837;52.446;-1.930;2023-02-17T03:44:09;100310.56;;;10.87;82.76
60642;BME280;46837;52.446;-1.930;2023-02-17T03:45:09;100304.87;;;10.86;82.61
60642;BME280;46837;52.446;-1.930;2023-02-17T03:46:11;100303.99;;;10.86;82.62
60642;BME280;46837;52.446;-1.930;2023-02-17T03:47:09;100306.99;;;10.85;82.59
60642;BME280;46837;52.446;-1.930;2023-02-17T03:48:09;100301.33;;;10.88;82.57
60642;BME280;46837;52.446;-1.930;2023-02-17T03:49:09;100299.20;;;10.90;82.52
60642;BME280;46837;52.446;-1.930;2023-02-17T03:50:09;100295.89;;;10.85;82.54
60642;BME280;46837;52.446;-1.930;2023-02-17T03:51:14;100294.52;;;10.85;82.46
60642;BME280;46837;52.446;-1.930;2023-02-17T03:52:09;100293.99;;;10.89;82.37
60642;BME280;46837;52.446;-1.930;2023-02-17T03:53:09;100292.58;;;10.92;82.29
60642;BME280;46837;52.446;-1.930;2023-02-17T03:54:09;100298.05;;;10.90;82.26
60642;BME280;46837;52.446;-1.930;2023-02-17T03:55:09;100292.26;;;10.91;82.25
60642;BME280;46837;52.446;-1.930;2023-02-17T03:56:09;100281.20;;;10.87;82.18
60642;BME280;46837;52.446;-1.930;2023-02-17T03:57:09;100290.88;;;10.87;82.27
60642;BME280;46837;52.446;-1.930;2023-02-17T03:58:09;100281.13;;;10.85;82.33
60642;BME280;46837;52.446;-1.930;2023-02-17T03:59:09;100283.71;;;10.86;82.30
60642;BME280;46837;52.446;-1.930;2023-02-17T04:00:09;100272.10;;;10.81;82.32
60642;BME280;46837;52.446;-1.930;2023-02-17T04:01:10;100287.40;;;10.81;82.42
60642;BME280;46837;52.446;-1.930;2023-02-17T04:02:09;100283.55;;;10.84;82.30
60642;BME280;46837;52.446;-1.930;2023-02-17T04:03:09;100291.41;;;10.83;82.28
60642;BME280;46837;52.446;-1.930;2023-02-17T04:04:09;100290.20;;;10.82;82.37
60642;BME280;46837;52.446;-1.930;2023-02-17T04:05:09;100275.93;;;10.79;82.46
60642;BME280;46837;52.446;-1.930;2023-02-17T04:06:09;100293.09;;;10.81;82.48
60642;BME280;46837;52.446;-1.930;2023-02-17T04:07:09;100289.21;;;10.82;82.32
60642;BME280;46837;52.446;-1.930;2023-02-17T04:08:09;100286.59;;;10.80;82.41
60642;BME280;46837;52.446;-1.930;2023-02-17T04:09:09;100288.80;;;10.70;82.41
60642;BME280;46837;52.446;-1.930;2023-02-17T04:10:09;100281.14;;;10.71;82.99
60642;BME280;46837;52.446;-1.930;2023-02-17T04:11:09;100296.12;;;10.74;82.85
60642;BME280;46837;52.446;-1.930;2023-02-17T04:12:09;100280.35;;;10.79;82.67
60642;BME280;46837;52.446;-1.930;2023-02-17T04:13:09;100290.02;;;10.79;82.75
60642;BME280;46837;52.446;-1.930;2023-02-17T04:14:09;100291.79;;;10.82;82.60
60642;BME280;46837;52.446;-1.930;2023-02-17T04:15:09;100275.07;;;10.84;82.42
60642;BME280;46837;52.446;-1.930;2023-02-17T04:16:09;100286.05;;;10.85;82.58
60642;BME280;46837;52.446;-1.930;2023-02-17T04:17:09;100284.75;;;10.84;82.53
60642;BME280;46837;52.446;-1.930;2023-02-17T04:18:09;100290.50;;;10.88;82.58
60642;BME280;46837;52.446;-1.930;2023-02-17T04:19:09;100286.69;;;10.91;82.42
60642;BME280;46837;52.446;-1.930;2023-02-17T04:20:09;100285.10;;;10.93;82.33
60642;BME280;46837;52.446;-1.930;2023-02-17T04:21:09;100281.76;;;10.90;82.44
60642;BME280;46837;52.446;-1.930;2023-02-17T04:22:10;100278.87;;;10.93;82.47
60642;BME280;46837;52.446;-1.930;2023-02-17T04:23:09;100284.99;;;10.95;82.33
60642;BME280;46837;52.446;-1.930;2023-02-17T04:24:09;100283.69;;;10.97;82.27
60642;BME280;46837;52.446;-1.930;2023-02-17T04:25:09;100283.87;;;11.01;82.17
60642;BME280;46837;52.446;-1.930;2023-02-17T04:26:09;100282.39;;;11.03;82.13
60642;BME280;46837;52.446;-1.930;2023-02-17T04:27:09;100281.96;;;11.01;82.19
60642;BME280;46837;52.446;-1.930;2023-02-17T04:28:09;100281.95;;;11.02;82.09
60642;BME280;46837;52.446;-1.930;2023-02-17T04:29:09;100281.58;;;11.02;82.18
60642;BME280;46837;52.446;-1.930;2023-02-17T04:30:09;100277.21;;;11.04;82.08
60642;BME280;46837;52.446;-1.930;2023-02-17T04:31:09;100269.21;;;11.03;82.09
60642;BME280;46837;52.446;-1.930;2023-02-17T04:32:09;100266.15;;;11.01;82.09
60642;BME280;46837;52.446;-1.930;2023-02-17T04:33:09;100258.99;;;10.98;82.21
60642;BME280;46837;52.446;-1.930;2023-02-17T04:34:09;100260.68;;;10.98;82.33
60642;BME280;46837;52.446;-1.930;2023-02-17T04:35:09;100259.21;;;11.01;82.20
60642;BME280;46837;52.446;-1.930;2023-02-17T04:36:09;100261.67;;;11.01;82.11
60642;BME280;46837;52.446;-1.930;2023-02-17T04:37:09;100261.16;;;10.99;82.14
60642;BME280;46837;52.446;-1.930;2023-02-17T04:38:09;100263.13;;;10.97;82.29
60642;BME280;46837;52.446;-1.930;2023-02-17T04:39:09;100262.27;;;10.98;82.20
60642;BME280;46837;52.446;-1.930;2023-02-17T04:40:12;100269.64;;;10.99;82.20
60642;BME280;46837;52.446;-1.930;2023-02-17T04:41:09;100270.79;;;10.96;82.23
60642;BME280;46837;52.446;-1.930;2023-02-17T04:42:09;100267.46;;;10.97;82.16
60642;BME280;46837;52.446;-1.930;2023-02-17T04:43:09;100258.92;;;10.97;82.13
60642;BME280;46837;52.446;-1.930;2023-02-17T04:44:09;100263.00;;;10.92;82.39
60642;BME280;46837;52.446;-1.930;2023-02-17T04:45:09;100261.09;;;10.92;82.34
60642;BME280;46837;52.446;-1.930;2023-02-17T04:46:09;100251.56;;;10.86;82.57
60642;BME280;46837;52.446;-1.930;2023-02-17T04:47:09;100259.50;;;10.87;82.64
60642;BME280;46837;52.446;-1.930;2023-02-17T04:48:09;100256.72;;;10.88;82.49
60642;BME280;46837;52.446;-1.930;2023-02-17T04:49:09;100259.34;;;10.87;82.58
60642;BME280;46837;52.446;-1.930;2023-02-17T04:50:09;100263.34;;;10.91;82.45
60642;BME280;46837;52.446;-1.930;2023-02-17T04:51:09;100258.47;;;10.91;82.41
60642;BME280;46837;52.446;-1.930;2023-02-17T04:52:09;100254.71;;;10.91;82.43
60642;BME280;46837;52.446;-1.930;2023-02-17T04:53:09;100264.88;;;10.91;82.44
60642;BME280;46837;52.446;-1.930;2023-02-17T04:54:09;100252.33;;;10.86;82.69
60642;BME280;46837;52.446;-1.930;2023-02-17T04:55:09;100260.75;;;10.88;82.72
60642;BME280;46837;52.446;-1.930;2023-02-17T04:56:09;100258.57;;;10.92;82.65
60642;BME280;46837;52.446;-1.930;2023-02-17T04:57:09;100258.05;;;10.97;82.41
60642;BME280;46837;52.446;-1.930;2023-02-17T04:58:09;100263.70;;;10.98;82.33
60642;BME280;46837;52.446;-1.930;2023-02-17T04:59:09;100259.15;;;11.01;82.24
60642;BME280;46837;52.446;-1.930;2023-02-17T05:00:09;100259.49;;;11.05;82.08
60642;BME280;46837;52.446;-1.930;2023-02-17T05:01:09;100256.42;;;11.03;82.08
60642;BME280;46837;52.446;-1.930;2023-02-17T05:02:09;100250.91;;;11.02;82.21
60642;BME280;46837;52.446;-1.930;2023-02-17T05:03:09;100228.25;;;11.03;82.12
60642;BME280;46837;52.446;-1.930;2023-02-17T05:04:09;100248.96;;;10.96;82.41
60642;BME280;46837;52.446;-1.930;2023-02-17T05:05:09;100248.80;;;10.96;82.43
60642;BME280;46837;52.446;-1.930;2023-02-17T05:06:09;100250.12;;;10.96;82.42
60642;BME280;46837;52.446;-1.930;2023-02-17T05:07:09;100246.19;;;10.97;82.39
60642;BME280;46837;52.446;-1.930;2023-02-17T05:08:09;100247.88;;;10.99;82.29
60642;BME280;46837;52.446;-1.930;2023-02-17T05:09:09;100247.01;;;10.97;82.36
60642;BME280;46837;52.446;-1.930;2023-02-17T05:10:09;100237.48;;;10.99;82.25
60642;BME280;46837;52.446;-1.930;2023-02-17T05:11:09;100239.23;;;10.96;82.35
60642;BME280;46837;52.446;-1.930;2023-02-17T05:12:09;100240.66;;;10.94;82.49
60642;BME280;46837;52.446;-1.930;2023-02-17T05:13:09;100241.20;;;10.95;82.46
60642;BME280;46837;52.446;-1.930;2023-02-17T05:14:09;100239.51;;;10.96;82.42
60642;BME280;46837;52.446;-1.930;2023-02-17T05:15:09;100235.78;;;10.95;82.43
60642;BME280;46837;52.446;-1.930;2023-02-17T05:16:09;100236.01;;;10.91;82.58
60642;BME280;46837;52.446;-1.930;2023-02-17T05:17:09;100232.12;;;10.91;82.68
60642;BME280;46837;52.446;-1.930;2023-02-17T05:18:09;100226.96;;;10.88;82.65
60642;BME280;46837;52.446;-1.930;2023-02-17T05:19:09;100229.48;;;10.85;82.84
60642;BME280;46837;52.446;-1.930;2023-02-17T05:20:09;100235.93;;;10.86;82.79
60642;BME280;46837;52.446;-1.930;2023-02-17T05:21:09;100224.38;;;10.81;82.83
60642;BME280;46837;52.446;-1.930;2023-02-17T05:22:09;100232.36;;;10.79;83.13
60642;BME280;46837;52.446;-1.930;2023-02-17T05:23:09;100230.00;;;10.81;83.17
60642;BME280;46837;52.446;-1.930;2023-02-17T05:24:09;100228.48;;;10.82;83.05
60642;BME280;46837;52.446;-1.930;2023-02-17T05:25:09;100230.02;;;10.81;83.12
60642;BME280;46837;52.446;-1.930;2023-02-17T05:26:09;100227.34;;;10.82;83.12
60642;BME280;46837;52.446;-1.930;2023-02-17T05:27:09;100224.94;;;10.81;83.18
60642;BME280;46837;52.446;-1.930;2023-02-17T05:28:09;100228.75;;;10.80;83.29
60642;BME280;46837;52.446;-1.930;2023-02-17T05:29:09;100221.05;;;10.77;83.40
60642;BME280;46837;52.446;-1.930;2023-02-17T05:30:09;100201.29;;;10.72;83.82
60642;BME280;46837;52.446;-1.930;2023-02-17T05:31:09;100204.34;;;10.66;84.15
60642;BME280;46837;52.446;-1.930;2023-02-17T05:32:09;100206.25;;;10.67;84.26
60642;BME280;46837;52.446;-1.930;2023-02-17T05:33:09;100191.18;;;10.70;84.11
60642;BME280;46837;52.446;-1.930;2023-02-17T05:34:09;100196.32;;;10.70;84.15
60642;BME280;46837;52.446;-1.930;2023-02-17T05:35:09;100196.31;;;10.66;84.47
60642;BME280;46837;52.446;-1.930;2023-02-17T05:36:09;100201.50;;;10.68;84.37
60642;BME280;46837;52.446;-1.930;2023-02-17T05:37:09;100192.20;;;10.66;84.58
60642;BME280;46837;52.446;-1.930;2023-02-17T05:38:09;100198.85;;;10.61;85.00
60642;BME280;46837;52.446;-1.930;2023-02-17T05:39:09;100196.74;;;10.66;84.81
60642;BME280;46837;52.446;-1.930;2023-02-17T05:40:09;100199.86;;;10.66;84.71
60642;BME280;46837;52.446;-1.930;2023-02-17T05:41:09;100206.84;;;10.63;84.87
60642;BME280;46837;52.446;-1.930;2023-02-17T05:42:09;100207.29;;;10.66;84.83
60642;BME280;46837;52.446;-1.930;2023-02-17T05:43:09;100213.25;;;10.67;84.87
60642;BME280;46837;52.446;-1.930;2023-02-17T05:44:09;100192.69;;;10.65;84.86
60642;BME280;46837;52.446;-1.930;2023-02-17T05:45:09;100204.93;;;10.63;85.29